sensor_id;sensor_type;location;lat;lon;timestamp;P1;P2;P0
47982;PMS5003;33751;50.816;-1.214;2022-12-18T00:02:14;10;9;
47982;PMS5003;33751;50.816;-1.214;2022-12-18T00:04:41;5;5;
47982;PMS5003;33751;50.816;-1.214;2022-12-18T00:07:08;8;7;
47982;PMS5003;33751;50.816;-1.214;2022-12-18T00:09:34;8;8;
47982;PMS5003;33751;50.816;-1.214;2022-12-18T00:12:02;9;7;
47982;PMS5003;33751;50.816;-1.214;2022-12-18T00:14:29;12;11;
47982;PMS5003;33751;50.816;-1.214;2022-12-18T00:16:55;7;6;
47982;PMS5003;33751;50.816;-1.214;2022-12-18T00:19:22;11;8;
47982;PMS5003;33751;50.816;-1.214;2022-12-18T00:21:49;9;8;
47982;PMS5003;33751;50.816;-1.214;2022-12-18T00:24:16;13;11;
47982;PMS5003;33751;50.816;-1.214;2022-12-18T00:26:43;10;9;
47982;PMS5003;33751;50.816;-1.214;2022-12-18T00:29:12;19;19;
47982;PMS5003;33751;50.816;-1.214;2022-12-18T00:31:40;11;10;
47982;PMS5003;33751;50.816;-1.214;2022-12-18T00:34:08;18;12;
47982;PMS5003;33751;50.816;-1.214;2022-12-18T00:36:37;13;10;
47982;PMS5003;33751;50.816;-1.214;2022-12-18T00:39:04;11;10;
47982;PMS5003;33751;50.816;-1.214;2022-12-18T00:41:32;18;11;
47982;PMS5003;33751;50.816;-1.214;2022-12-18T00:43:59;16;11;
47982;PMS5003;33751;50.816;-1.214;2022-12-18T00:46:26;14;11;
47982;PMS5003;33751;50.816;-1.214;2022-12-18T00:48:53;12;10;
47982;PMS5003;33751;50.816;-1.214;2022-12-18T00:51:20;16;12;
47982;PMS5003;33751;50.816;-1.214;2022-12-18T00:53:47;15;12;
47982;PMS5003;33751;50.816;-1.214;2022-12-18T00:56:14;10;9;
47982;PMS5003;33751;50.816;-1.214;2022-12-18T00:58:40;14;12;
47982;PMS5003;33751;50.816;-1.214;2022-12-18T01:01:08;15;13;
47982;PMS5003;33751;50.816;-1.214;2022-12-18T01:03:34;12;10;
47982;PMS5003;33751;50.816;-1.214;2022-12-18T01:06:05;17;12;
47982;PMS5003;33751;50.816;-1.214;2022-12-18T01:08:33;13;12;
47982;PMS5003;33751;50.816;-1.214;2022-12-18T01:11:00;16;16;
47982;PMS5003;33751;50.816;-1.214;2022-12-18T01:13:27;22;19;
47982;PMS5003;33751;50.816;-1.214;2022-12-18T01:15:54;12;11;
47982;PMS5003;33751;50.816;-1.214;2022-12-18T01:18:21;17;15;
47982;PMS5003;33751;50.816;-1.214;2022-12-18T01:20:48;18;15;
47982;PMS5003;33751;50.816;-1.214;2022-12-18T01:23:16;13;11;
47982;PMS5003;33751;50.816;-1.214;2022-12-18T01:25:42;13;11;
47982;PMS5003;33751;50.816;-1.214;2022-12-18T01:28:10;14;12;
47982;PMS5003;33751;50.816;-1.214;2022-12-18T01:30:37;14;12;
47982;PMS5003;33751;50.816;-1.214;2022-12-18T01:33:04;13;12;
47982;PMS5003;33751;50.816;-1.214;2022-12-18T01:35:31;19;15;
47982;PMS5003;33751;50.816;-1.214;2022-12-18T01:37:58;17;14;
47982;PMS5003;33751;50.816;-1.214;2022-12-18T01:40:25;13;11;
47982;PMS5003;33751;50.816;-1.214;2022-12-18T01:42:52;12;12;
47982;PMS5003;33751;50.816;-1.214;2022-12-18T01:45:22;14;11;
47982;PMS5003;33751;50.816;-1.214;2022-12-18T01:47:51;13;11;
47982;PMS5003;33751;50.816;-1.214;2022-12-18T01:50:21;10;8;
47982;PMS5003;33751;50.816;-1.214;2022-12-18T01:52:51;18;16;
47982;PMS5003;33751;50.816;-1.214;2022-12-18T01:55:22;13;10;
47982;PMS5003;33751;50.816;-1.214;2022-12-18T01:57:51;11;9;
47982;PMS5003;33751;50.816;-1.214;2022-12-18T02:00:21;12;11;
47982;PMS5003;33751;50.816;-1.214;2022-12-18T02:02:49;14;11;
47982;PMS5003;33751;50.816;-1.214;2022-12-18T02:05:17;14;10;
47982;PMS5003;33751;50.816;-1.214;2022-12-18T02:07:51;12;8;
47982;PMS5003;33751;50.816;-1.214;2022-12-18T02:10:27;17;10;
47982;PMS5003;33751;50.816;-1.214;2022-12-18T02:13:00;14;11;
47982;PMS5003;33751;50.816;-1.214;2022-12-18T02:15:35;14;12;
47982;PMS5003;33751;50.816;-1.214;2022-12-18T02:18:08;11;11;
47982;PMS5003;33751;50.816;-1.214;2022-12-18T02:20:40;9;8;
47982;PMS5003;33751;50.816;-1.214;2022-12-18T02:23:16;9;9;
47982;PMS5003;33751;50.816;-1.214;2022-12-18T02:26:02;13;11;
47982;PMS5003;33751;50.816;-1.214;2022-12-18T02:28:40;11;10;
47982;PMS5003;33751;50.816;-1.214;2022-12-18T02:31:11;14;14;
47982;PMS5003;33751;50.816;-1.214;2022-12-18T02:33:43;10;9;
47982;PMS5003;33751;50.816;-1.214;2022-12-18T02:36:11;21;13;
47982;PMS5003;33751;50.816;-1.214;2022-12-18T02:38:40;10;9;
47982;PMS5003;33751;50.816;-1.214;2022-12-18T02:41:08;10;8;
47982;PMS5003;33751;50.816;-1.214;2022-12-18T02:43:35;16;12;
47982;PMS5003;33751;50.816;-1.214;2022-12-18T02:46:22;9;7;
47982;PMS5003;33751;50.816;-1.214;2022-12-18T02:48:57;13;12;
47982;PMS5003;33751;50.816;-1.214;2022-12-18T02:51:33;9;6;
47982;PMS5003;33751;50.816;-1.214;2022-12-18T02:54:09;11;11;
47982;PMS5003;33751;50.816;-1.214;2022-12-18T02:56:44;12;12;
47982;PMS5003;33751;50.816;-1.214;2022-12-18T02:59:17;8;8;
47982;PMS5003;33751;50.816;-1.214;2022-12-18T03:01:53;10;9;
47982;PMS5003;33751;50.816;-1.214;2022-12-18T03:04:25;7;7;
47982;PMS5003;33751;50.816;-1.214;2022-12-18T03:06:56;8;7;
47982;PMS5003;33751;50.816;-1.214;2022-12-18T03:09:27;7;7;
47982;PMS5003;33751;50.816;-1.214;2022-12-18T03:11:59;11;9;
47982;PMS5003;33751;50.816;-1.214;2022-12-18T03:14:30;7;7;
47982;PMS5003;33751;50.816;-1.214;2022-12-18T03:17:01;9;8;
47982;PMS5003;33751;50.816;-1.214;2022-12-18T03:19:33;17;16;
47982;PMS5003;33751;50.816;-1.214;2022-12-18T03:22:02;10;9;
47982;PMS5003;33751;50.816;-1.214;2022-12-18T03:24:32;14;12;
47982;PMS5003;33751;50.816;-1.214;2022-12-18T03:27:02;17;13;
47982;PMS5003;33751;50.816;-1.214;2022-12-18T03:29:32;11;10;
47982;PMS5003;33751;50.816;-1.214;2022-12-18T03:32:04;7;7;
47982;PMS5003;33751;50.816;-1.214;2022-12-18T03:34:35;12;10;
47982;PMS5003;33751;50.816;-1.214;2022-12-18T03:37:06;12;10;
47982;PMS5003;33751;50.816;-1.214;2022-12-18T03:39:33;10;9;
47982;PMS5003;33751;50.816;-1.214;2022-12-18T03:42:01;10;10;
47982;PMS5003;33751;50.816;-1.214;2022-12-18T03:44:35;9;9;
47982;PMS5003;33751;50.816;-1.214;2022-12-18T03:47:09;11;8;
47982;PMS5003;33751;50.816;-1.214;2022-12-18T03:49:44;14;14;
47982;PMS5003;33751;50.816;-1.214;2022-12-18T03:52:16;13;10;
47982;PMS5003;33751;50.816;-1.214;2022-12-18T03:54:50;9;9;
47982;PMS5003;33751;50.816;-1.214;2022-12-18T03:57:21;15;12;
47982;PMS5003;33751;50.816;-1.214;2022-12-18T03:59:51;14;10;
47982;PMS5003;33751;50.816;-1.214;2022-12-18T04:02:23;8;8;
47982;PMS5003;33751;50.816;-1.214;2022-12-18T04:04:51;13;10;
47982;PMS5003;33751;50.816;-1.214;2022-12-18T04:07:22;11;9;
47982;PMS5003;33751;50.816;-1.214;2022-12-18T04:09:50;7;7;
47982;PMS5003;33751;50.816;-1.214;2022-12-18T04:12:21;11;9;
47982;PMS5003;33751;50.816;-1.214;2022-12-18T04:14:50;16;11;
47982;PMS5003;33751;50.816;-1.214;2022-12-18T04:17:16;11;11;
47982;PMS5003;33751;50.816;-1.214;2022-12-18T04:19:43;14;13;
47982;PMS5003;33751;50.816;-1.214;2022-12-18T04:22:10;13;12;
47982;PMS5003;33751;50.816;-1.214;2022-12-18T04:24:37;12;11;
47982;PMS5003;33751;50.816;-1.214;2022-12-18T04:27:04;16;15;
47982;PMS5003;33751;50.816;-1.214;2022-12-18T04:29:31;13;12;
47982;PMS5003;33751;50.816;-1.214;2022-12-18T04:31:58;10;10;
47982;PMS5003;33751;50.816;-1.214;2022-12-18T04:34:24;15;12;
47982;PMS5003;33751;50.816;-1.214;2022-12-18T04:36:51;15;13;
47982;PMS5003;33751;50.816;-1.214;2022-12-18T04:39:18;15;14;
47982;PMS5003;33751;50.816;-1.214;2022-12-18T04:41:45;13;12;
47982;PMS5003;33751;50.816;-1.214;2022-12-18T04:44:12;17;12;
47982;PMS5003;33751;50.816;-1.214;2022-12-18T04:46:40;11;9;
47982;PMS5003;33751;50.816;-1.214;2022-12-18T04:49:06;15;14;
47982;PMS5003;33751;50.816;-1.214;2022-12-18T04:51:33;16;16;
47982;PMS5003;33751;50.816;-1.214;2022-12-18T04:54:00;13;13;
47982;PMS5003;33751;50.816;-1.214;2022-12-18T04:56:27;18;17;
47982;PMS5003;33751;50.816;-1.214;2022-12-18T04:58:54;16;14;
47982;PMS5003;33751;50.816;-1.214;2022-12-18T05:01:21;14;12;
47982;PMS5003;33751;50.816;-1.214;2022-12-18T05:03:48;20;15;
47982;PMS5003;33751;50.816;-1.214;2022-12-18T05:06:15;20;17;
47982;PMS5003;33751;50.816;-1.214;2022-12-18T05:08:42;17;17;
47982;PMS5003;33751;50.816;-1.214;2022-12-18T05:11:09;15;13;
47982;PMS5003;33751;50.816;-1.214;2022-12-18T05:13:38;15;13;
47982;PMS5003;33751;50.816;-1.214;2022-12-18T05:16:05;18;18;
47982;PMS5003;33751;50.816;-1.214;2022-12-18T05:18:33;17;15;
47982;PMS5003;33751;50.816;-1.214;2022-12-18T05:21:01;15;13;
47982;PMS5003;33751;50.816;-1.214;2022-12-18T05:23:28;20;16;
47982;PMS5003;33751;50.816;-1.214;2022-12-18T05:25:56;14;14;
47982;PMS5003;33751;50.816;-1.214;2022-12-18T05:28:25;19;17;
47982;PMS5003;33751;50.816;-1.214;2022-12-18T05:30:54;23;20;
47982;PMS5003;33751;50.816;-1.214;2022-12-18T05:33:23;17;13;
47982;PMS5003;33751;50.816;-1.214;2022-12-18T05:35:51;16;15;
47982;PMS5003;33751;50.816;-1.214;2022-12-18T05:38:19;19;19;
47982;PMS5003;33751;50.816;-1.214;2022-12-18T05:40:47;20;19;
47982;PMS5003;33751;50.816;-1.214;2022-12-18T05:43:14;14;14;
47982;PMS5003;33751;50.816;-1.214;2022-12-18T05:45:41;19;15;
47982;PMS5003;33751;50.816;-1.214;2022-12-18T05:48:08;14;12;
47982;PMS5003;33751;50.816;-1.214;2022-12-18T05:50:36;16;13;
47982;PMS5003;33751;50.816;-1.214;2022-12-18T05:53:03;18;14;
47982;PMS5003;33751;50.816;-1.214;2022-12-18T05:55:32;21;19;
47982;PMS5003;33751;50.816;-1.214;2022-12-18T05:58:00;13;13;
47982;PMS5003;33751;50.816;-1.214;2022-12-18T06:00:26;10;10;
47982;PMS5003;33751;50.816;-1.214;2022-12-18T06:02:53;17;13;
47982;PMS5003;33751;50.816;-1.214;2022-12-18T06:05:20;13;11;
47982;PMS5003;33751;50.816;-1.214;2022-12-18T06:07:47;13;12;
47982;PMS5003;33751;50.816;-1.214;2022-12-18T06:10:14;18;17;
47982;PMS5003;33751;50.816;-1.214;2022-12-18T06:12:41;13;10;
47982;PMS5003;33751;50.816;-1.214;2022-12-18T06:15:08;14;11;
47982;PMS5003;33751;50.816;-1.214;2022-12-18T06:17:35;18;18;
47982;PMS5003;33751;50.816;-1.214;2022-12-18T06:20:02;17;15;
47982;PMS5003;33751;50.816;-1.214;2022-12-18T06:22:30;18;16;
47982;PMS5003;33751;50.816;-1.214;2022-12-18T06:24:57;15;12;
47982;PMS5003;33751;50.816;-1.214;2022-12-18T06:27:24;11;11;
47982;PMS5003;33751;50.816;-1.214;2022-12-18T06:29:51;10;10;
47982;PMS5003;33751;50.816;-1.214;2022-12-18T06:32:18;9;9;
47982;PMS5003;33751;50.816;-1.214;2022-12-18T06:34:45;11;11;
47982;PMS5003;33751;50.816;-1.214;2022-12-18T06:37:12;11;9;
47982;PMS5003;33751;50.816;-1.214;2022-12-18T06:39:39;17;16;
47982;PMS5003;33751;50.816;-1.214;2022-12-18T06:42:06;14;12;
47982;PMS5003;33751;50.816;-1.214;2022-12-18T06:44:33;16;12;
47982;PMS5003;33751;50.816;-1.214;2022-12-18T06:47:00;14;12;
47982;PMS5003;33751;50.816;-1.214;2022-12-18T06:49:27;14;12;
47982;PMS5003;33751;50.816;-1.214;2022-12-18T06:51:53;14;12;
47982;PMS5003;33751;50.816;-1.214;2022-12-18T06:54:21;19;19;
47982;PMS5003;33751;50.816;-1.214;2022-12-18T06:56:48;14;13;
47982;PMS5003;33751;50.816;-1.214;2022-12-18T06:59:15;27;16;
47982;PMS5003;33751;50.816;-1.214;2022-12-18T07:01:42;11;10;
47982;PMS5003;33751;50.816;-1.214;2022-12-18T07:04:09;16;15;
47982;PMS5003;33751;50.816;-1.214;2022-12-18T07:06:36;12;12;
47982;PMS5003;33751;50.816;-1.214;2022-12-18T07:09:03;15;15;
47982;PMS5003;33751;50.816;-1.214;2022-12-18T07:11:31;17;13;
47982;PMS5003;33751;50.816;-1.214;2022-12-18T07:13:59;15;15;
47982;PMS5003;33751;50.816;-1.214;2022-12-18T07:16:25;14;14;
47982;PMS5003;33751;50.816;-1.214;2022-12-18T07:18:53;15;14;
47982;PMS5003;33751;50.816;-1.214;2022-12-18T07:21:21;12;11;
47982;PMS5003;33751;50.816;-1.214;2022-12-18T07:23:48;11;11;
47982;PMS5003;33751;50.816;-1.214;2022-12-18T07:26:17;16;15;
47982;PMS5003;33751;50.816;-1.214;2022-12-18T07:28:45;20;19;
47982;PMS5003;33751;50.816;-1.214;2022-12-18T07:31:13;15;12;
47982;PMS5003;33751;50.816;-1.214;2022-12-18T07:33:41;14;14;
47982;PMS5003;33751;50.816;-1.214;2022-12-18T07:36:09;21;19;
47982;PMS5003;33751;50.816;-1.214;2022-12-18T07:38:36;15;11;
47982;PMS5003;33751;50.816;-1.214;2022-12-18T07:41:05;17;15;
47982;PMS5003;33751;50.816;-1.214;2022-12-18T07:43:33;15;14;
47982;PMS5003;33751;50.816;-1.214;2022-12-18T07:46:00;15;14;
47982;PMS5003;33751;50.816;-1.214;2022-12-18T07:48:27;17;14;
47982;PMS5003;33751;50.816;-1.214;2022-12-18T07:50:57;19;16;
47982;PMS5003;33751;50.816;-1.214;2022-12-18T07:53:25;16;14;
47982;PMS5003;33751;50.816;-1.214;2022-12-18T07:55:54;18;16;
47982;PMS5003;33751;50.816;-1.214;2022-12-18T07:58:22;18;17;
47982;PMS5003;33751;50.816;-1.214;2022-12-18T08:00:49;16;16;
47982;PMS5003;33751;50.816;-1.214;2022-12-18T08:03:16;17;16;
47982;PMS5003;33751;50.816;-1.214;2022-12-18T08:05:43;18;14;
47982;PMS5003;33751;50.816;-1.214;2022-12-18T08:08:10;15;13;
47982;PMS5003;33751;50.816;-1.214;2022-12-18T08:10:38;12;12;
47982;PMS5003;33751;50.816;-1.214;2022-12-18T08:13:05;20;17;
47982;PMS5003;33751;50.816;-1.214;2022-12-18T08:15:32;15;14;
47982;PMS5003;33751;50.816;-1.214;2022-12-18T08:17:58;17;16;
47982;PMS5003;33751;50.816;-1.214;2022-12-18T08:20:25;16;15;
47982;PMS5003;33751;50.816;-1.214;2022-12-18T08:22:52;18;17;
47982;PMS5003;33751;50.816;-1.214;2022-12-18T08:25:19;19;17;
47982;PMS5003;33751;50.816;-1.214;2022-12-18T08:27:45;18;16;
47982;PMS5003;33751;50.816;-1.214;2022-12-18T08:30:13;20;14;
47982;PMS5003;33751;50.816;-1.214;2022-12-18T08:32:40;16;12;
47982;PMS5003;33751;50.816;-1.214;2022-12-18T08:35:07;16;12;
47982;PMS5003;33751;50.816;-1.214;2022-12-18T08:37:34;18;15;
47982;PMS5003;33751;50.816;-1.214;2022-12-18T08:40:02;15;12;
47982;PMS5003;33751;50.816;-1.214;2022-12-18T08:42:29;18;13;
47982;PMS5003;33751;50.816;-1.214;2022-12-18T08:44:56;14;12;
47982;PMS5003;33751;50.816;-1.214;2022-12-18T08:47:23;12;10;
47982;PMS5003;33751;50.816;-1.214;2022-12-18T08:49:50;22;16;
47982;PMS5003;33751;50.816;-1.214;2022-12-18T08:52:17;15;13;
47982;PMS5003;33751;50.816;-1.214;2022-12-18T08:54:44;14;11;
47982;PMS5003;33751;50.816;-1.214;2022-12-18T08:57:10;15;14;
47982;PMS5003;33751;50.816;-1.214;2022-12-18T08:59:37;12;12;
47982;PMS5003;33751;50.816;-1.214;2022-12-18T09:02:04;20;17;
47982;PMS5003;33751;50.816;-1.214;2022-12-18T09:04:30;21;19;
47982;PMS5003;33751;50.816;-1.214;2022-12-18T09:06:57;15;13;
47982;PMS5003;33751;50.816;-1.214;2022-12-18T09:09:24;10;10;
47982;PMS5003;33751;50.816;-1.214;2022-12-18T09:11:51;16;14;
47982;PMS5003;33751;50.816;-1.214;2022-12-18T09:14:18;13;12;
47982;PMS5003;33751;50.816;-1.214;2022-12-18T09:16:45;19;15;
47982;PMS5003;33751;50.816;-1.214;2022-12-18T09:19:12;17;11;
47982;PMS5003;33751;50.816;-1.214;2022-12-18T09:21:39;14;14;
47982;PMS5003;33751;50.816;-1.214;2022-12-18T09:24:06;19;16;
47982;PMS5003;33751;50.816;-1.214;2022-12-18T09:26:38;23;15;
47982;PMS5003;33751;50.816;-1.214;2022-12-18T09:29:05;17;14;
47982;PMS5003;33751;50.816;-1.214;2022-12-18T09:31:33;21;15;
47982;PMS5003;33751;50.816;-1.214;2022-12-18T09:33:59;19;16;
47982;PMS5003;33751;50.816;-1.214;2022-12-18T09:36:26;16;14;
47982;PMS5003;33751;50.816;-1.214;2022-12-18T09:38:53;21;17;
47982;PMS5003;33751;50.816;-1.214;2022-12-18T09:41:29;21;18;
47982;PMS5003;33751;50.816;-1.214;2022-12-18T09:44:05;24;20;
47982;PMS5003;33751;50.816;-1.214;2022-12-18T09:46:43;27;25;
47982;PMS5003;33751;50.816;-1.214;2022-12-18T09:49:15;17;14;
47982;PMS5003;33751;50.816;-1.214;2022-12-18T09:51:46;14;13;
47982;PMS5003;33751;50.816;-1.214;2022-12-18T09:54:18;16;16;
47982;PMS5003;33751;50.816;-1.214;2022-12-18T09:56:48;18;17;
47982;PMS5003;33751;50.816;-1.214;2022-12-18T09:59:18;16;16;
47982;PMS5003;33751;50.816;-1.214;2022-12-18T10:01:50;23;18;
47982;PMS5003;33751;50.816;-1.214;2022-12-18T10:04:18;26;22;
47982;PMS5003;33751;50.816;-1.214;2022-12-18T10:06:46;19;15;
47982;PMS5003;33751;50.816;-1.214;2022-12-18T10:09:24;18;16;
47982;PMS5003;33751;50.816;-1.214;2022-12-18T10:12:02;22;18;
47982;PMS5003;33751;50.816;-1.214;2022-12-18T10:14:36;19;17;
47982;PMS5003;33751;50.816;-1.214;2022-12-18T10:17:14;20;14;
47982;PMS5003;33751;50.816;-1.214;2022-12-18T10:19:51;26;25;
47982;PMS5003;33751;50.816;-1.214;2022-12-18T10:22:26;21;18;
47982;PMS5003;33751;50.816;-1.214;2022-12-18T10:25:13;17;16;
47982;PMS5003;33751;50.816;-1.214;2022-12-18T10:27:46;20;18;
47982;PMS5003;33751;50.816;-1.214;2022-12-18T10:30:15;20;17;
47982;PMS5003;33751;50.816;-1.214;2022-12-18T10:32:47;19;18;
47982;PMS5003;33751;50.816;-1.214;2022-12-18T10:35:15;20;17;
47982;PMS5003;33751;50.816;-1.214;2022-12-18T10:38:02;27;20;
47982;PMS5003;33751;50.816;-1.214;2022-12-18T10:40:30;23;21;
47982;PMS5003;33751;50.816;-1.214;2022-12-18T10:43:05;21;20;
47982;PMS5003;33751;50.816;-1.214;2022-12-18T10:45:38;16;13;
47982;PMS5003;33751;50.816;-1.214;2022-12-18T10:48:17;21;17;
47982;PMS5003;33751;50.816;-1.214;2022-12-18T10:50:46;12;12;
47982;PMS5003;33751;50.816;-1.214;2022-12-18T10:53:18;16;15;
47982;PMS5003;33751;50.816;-1.214;2022-12-18T10:55:48;22;21;
47982;PMS5003;33751;50.816;-1.214;2022-12-18T10:58:18;17;16;
47982;PMS5003;33751;50.816;-1.214;2022-12-18T11:01:07;14;13;
47982;PMS5003;33751;50.816;-1.214;2022-12-18T11:03:37;19;18;
47982;PMS5003;33751;50.816;-1.214;2022-12-18T11:06:06;12;12;
47982;PMS5003;33751;50.816;-1.214;2022-12-18T11:08:35;14;13;
47982;PMS5003;33751;50.816;-1.214;2022-12-18T11:11:04;21;18;
47982;PMS5003;33751;50.816;-1.214;2022-12-18T11:13:41;13;12;
47982;PMS5003;33751;50.816;-1.214;2022-12-18T11:16:23;15;15;
47982;PMS5003;33751;50.816;-1.214;2022-12-18T11:18:50;15;12;
47982;PMS5003;33751;50.816;-1.214;2022-12-18T11:21:16;15;13;
47982;PMS5003;33751;50.816;-1.214;2022-12-18T11:23:46;22;14;
47982;PMS5003;33751;50.816;-1.214;2022-12-18T11:26:15;19;16;
47982;PMS5003;33751;50.816;-1.214;2022-12-18T11:28:43;15;12;
47982;PMS5003;33751;50.816;-1.214;2022-12-18T11:31:18;14;13;
47982;PMS5003;33751;50.816;-1.214;2022-12-18T11:33:51;10;10;
47982;PMS5003;33751;50.816;-1.214;2022-12-18T11:36:32;15;12;
47982;PMS5003;33751;50.816;-1.214;2022-12-18T11:39:07;13;11;
47982;PMS5003;33751;50.816;-1.214;2022-12-18T11:41:43;16;14;
47982;PMS5003;33751;50.816;-1.214;2022-12-18T11:44:18;14;12;
47982;PMS5003;33751;50.816;-1.214;2022-12-18T11:46:52;10;9;
47982;PMS5003;33751;50.816;-1.214;2022-12-18T11:49:27;16;12;
47982;PMS5003;33751;50.816;-1.214;2022-12-18T11:52:00;12;11;
47982;PMS5003;33751;50.816;-1.214;2022-12-18T11:54:36;15;9;
47982;PMS5003;33751;50.816;-1.214;2022-12-18T11:57:05;6;6;
47982;PMS5003;33751;50.816;-1.214;2022-12-18T11:59:43;9;9;
47982;PMS5003;33751;50.816;-1.214;2022-12-18T12:02:24;9;9;
47982;PMS5003;33751;50.816;-1.214;2022-12-18T12:05:12;8;8;
47982;PMS5003;33751;50.816;-1.214;2022-12-18T12:07:48;12;10;
47982;PMS5003;33751;50.816;-1.214;2022-12-18T12:10:27;7;7;
47982;PMS5003;33751;50.816;-1.214;2022-12-18T12:13:07;7;7;
47982;PMS5003;33751;50.816;-1.214;2022-12-18T12:15:51;9;9;
47982;PMS5003;33751;50.816;-1.214;2022-12-18T12:18:28;10;9;
47982;PMS5003;33751;50.816;-1.214;2022-12-18T12:21:05;7;7;
47982;PMS5003;33751;50.816;-1.214;2022-12-18T12:23:41;11;9;
47982;PMS5003;33751;50.816;-1.214;2022-12-18T12:26:14;7;7;
47982;PMS5003;33751;50.816;-1.214;2022-12-18T12:28:53;9;8;
47982;PMS5003;33751;50.816;-1.214;2022-12-18T12:31:32;7;7;
47982;PMS5003;33751;50.816;-1.214;2022-12-18T12:34:15;10;8;
47982;PMS5003;33751;50.816;-1.214;2022-12-18T12:36:49;11;10;
47982;PMS5003;33751;50.816;-1.214;2022-12-18T12:39:25;11;10;
47982;PMS5003;33751;50.816;-1.214;2022-12-18T12:41:57;12;12;
47982;PMS5003;33751;50.816;-1.214;2022-12-18T12:44:25;12;10;
47982;PMS5003;33751;50.816;-1.214;2022-12-18T12:46:57;8;6;
47982;PMS5003;33751;50.816;-1.214;2022-12-18T12:49:28;14;13;
47982;PMS5003;33751;50.816;-1.214;2022-12-18T12:51:59;14;12;
47982;PMS5003;33751;50.816;-1.214;2022-12-18T12:54:32;14;12;
47982;PMS5003;33751;50.816;-1.214;2022-12-18T12:57:01;8;7;
47982;PMS5003;33751;50.816;-1.214;2022-12-18T12:59:35;15;12;
47982;PMS5003;33751;50.816;-1.214;2022-12-18T13:02:11;7;7;
47982;PMS5003;33751;50.816;-1.214;2022-12-18T13:04:48;12;12;
47982;PMS5003;33751;50.816;-1.214;2022-12-18T13:07:24;10;9;
47982;PMS5003;33751;50.816;-1.214;2022-12-18T13:10:32;10;9;
47982;PMS5003;33751;50.816;-1.214;2022-12-18T13:13:01;14;11;
47982;PMS5003;33751;50.816;-1.214;2022-12-18T13:15:37;15;15;
47982;PMS5003;33751;50.816;-1.214;2022-12-18T13:18:11;9;9;
47982;PMS5003;33751;50.816;-1.214;2022-12-18T13:20:41;13;10;
47982;PMS5003;33751;50.816;-1.214;2022-12-18T13:23:27;9;9;
47982;PMS5003;33751;50.816;-1.214;2022-12-18T13:25:56;9;8;
47982;PMS5003;33751;50.816;-1.214;2022-12-18T13:28:50;11;8;
47982;PMS5003;33751;50.816;-1.214;2022-12-18T13:32:25;15;11;
47982;PMS5003;33751;50.816;-1.214;2022-12-18T13:36:00;10;9;
47982;PMS5003;33751;50.816;-1.214;2022-12-18T13:38:35;7;6;
47982;PMS5003;33751;50.816;-1.214;2022-12-18T13:41:04;10;9;
47982;PMS5003;33751;50.816;-1.214;2022-12-18T13:43:49;9;6;
47982;PMS5003;33751;50.816;-1.214;2022-12-18T13:46:19;9;6;
47982;PMS5003;33751;50.816;-1.214;2022-12-18T13:48:49;7;6;
47982;PMS5003;33751;50.816;-1.214;2022-12-18T13:51:20;7;7;
47982;PMS5003;33751;50.816;-1.214;2022-12-18T13:53:49;10;8;
47982;PMS5003;33751;50.816;-1.214;2022-12-18T13:56:21;8;6;
47982;PMS5003;33751;50.816;-1.214;2022-12-18T13:59:10;8;7;
47982;PMS5003;33751;50.816;-1.214;2022-12-18T14:01:44;6;6;
47982;PMS5003;33751;50.816;-1.214;2022-12-18T14:04:18;7;7;
47982;PMS5003;33751;50.816;-1.214;2022-12-18T14:06:49;8;5;
47982;PMS5003;33751;50.816;-1.214;2022-12-18T14:09:19;8;7;
47982;PMS5003;33751;50.816;-1.214;2022-12-18T14:11:50;5;5;
47982;PMS5003;33751;50.816;-1.214;2022-12-18T14:14:18;8;6;
47982;PMS5003;33751;50.816;-1.214;2022-12-18T14:16:45;9;7;
47982;PMS5003;33751;50.816;-1.214;2022-12-18T14:19:14;8;7;
47982;PMS5003;33751;50.816;-1.214;2022-12-18T14:21:45;13;10;
47982;PMS5003;33751;50.816;-1.214;2022-12-18T14:24:14;16;15;
47982;PMS5003;33751;50.816;-1.214;2022-12-18T14:26:43;18;16;
47982;PMS5003;33751;50.816;-1.214;2022-12-18T14:29:20;10;8;
47982;PMS5003;33751;50.816;-1.214;2022-12-18T14:32:05;10;10;
47982;PMS5003;33751;50.816;-1.214;2022-12-18T14:34:33;9;9;
47982;PMS5003;33751;50.816;-1.214;2022-12-18T14:37:00;8;6;
47982;PMS5003;33751;50.816;-1.214;2022-12-18T14:39:26;10;9;
47982;PMS5003;33751;50.816;-1.214;2022-12-18T14:41:53;8;6;
47982;PMS5003;33751;50.816;-1.214;2022-12-18T14:44:19;7;6;
47982;PMS5003;33751;50.816;-1.214;2022-12-18T14:46:47;12;11;
47982;PMS5003;33751;50.816;-1.214;2022-12-18T14:49:18;8;8;
47982;PMS5003;33751;50.816;-1.214;2022-12-18T14:51:50;9;9;
47982;PMS5003;33751;50.816;-1.214;2022-12-18T14:54:19;5;5;
47982;PMS5003;33751;50.816;-1.214;2022-12-18T14:56:47;4;4;
47982;PMS5003;33751;50.816;-1.214;2022-12-18T14:59:18;13;11;
47982;PMS5003;33751;50.816;-1.214;2022-12-18T15:01:48;5;5;
47982;PMS5003;33751;50.816;-1.214;2022-12-18T15:04:24;6;6;
47982;PMS5003;33751;50.816;-1.214;2022-12-18T15:07:11;5;5;
47982;PMS5003;33751;50.816;-1.214;2022-12-18T15:09:40;7;5;
47982;PMS5003;33751;50.816;-1.214;2022-12-18T15:12:19;7;5;
47982;PMS5003;33751;50.816;-1.214;2022-12-18T15:14:52;6;6;
47982;PMS5003;33751;50.816;-1.214;2022-12-18T15:17:19;7;6;
47982;PMS5003;33751;50.816;-1.214;2022-12-18T15:19:48;5;5;
47982;PMS5003;33751;50.816;-1.214;2022-12-18T15:22:18;6;6;
47982;PMS5003;33751;50.816;-1.214;2022-12-18T15:24:48;7;6;
47982;PMS5003;33751;50.816;-1.214;2022-12-18T15:27:20;3;2;
47982;PMS5003;33751;50.816;-1.214;2022-12-18T15:30:22;6;5;
47982;PMS5003;33751;50.816;-1.214;2022-12-18T15:32:50;12;11;
47982;PMS5003;33751;50.816;-1.214;2022-12-18T15:35:19;9;8;
47982;PMS5003;33751;50.816;-1.214;2022-12-18T15:37:48;10;10;
47982;PMS5003;33751;50.816;-1.214;2022-12-18T15:40:17;4;4;
47982;PMS5003;33751;50.816;-1.214;2022-12-18T15:42:46;6;6;
47982;PMS5003;33751;50.816;-1.214;2022-12-18T15:45:14;6;5;
47982;PMS5003;33751;50.816;-1.214;2022-12-18T15:47:41;8;8;
47982;PMS5003;33751;50.816;-1.214;2022-12-18T15:50:08;6;5;
47982;PMS5003;33751;50.816;-1.214;2022-12-18T15:52:36;12;9;
47982;PMS5003;33751;50.816;-1.214;2022-12-18T15:55:09;14;13;
47982;PMS5003;33751;50.816;-1.214;2022-12-18T15:57:38;10;8;
47982;PMS5003;33751;50.816;-1.214;2022-12-18T16:00:05;10;9;
47982;PMS5003;33751;50.816;-1.214;2022-12-18T16:02:32;14;13;
47982;PMS5003;33751;50.816;-1.214;2022-12-18T16:04:59;8;8;
47982;PMS5003;33751;50.816;-1.214;2022-12-18T16:07:26;10;10;
47982;PMS5003;33751;50.816;-1.214;2022-12-18T16:09:53;4;3;
47982;PMS5003;33751;50.816;-1.214;2022-12-18T16:12:21;7;6;
47982;PMS5003;33751;50.816;-1.214;2022-12-18T16:14:50;4;4;
47982;PMS5003;33751;50.816;-1.214;2022-12-18T16:17:16;7;5;
47982;PMS5003;33751;50.816;-1.214;2022-12-18T16:19:44;7;4;
47982;PMS5003;33751;50.816;-1.214;2022-12-18T16:22:17;11;10;
47982;PMS5003;33751;50.816;-1.214;2022-12-18T16:24:46;4;4;
47982;PMS5003;33751;50.816;-1.214;2022-12-18T16:27:14;3;2;
47982;PMS5003;33751;50.816;-1.214;2022-12-18T16:29:40;7;5;
47982;PMS5003;33751;50.816;-1.214;2022-12-18T16:32:08;9;9;
47982;PMS5003;33751;50.816;-1.214;2022-12-18T16:34:37;9;9;